sensor_id;sensor_type;location;lat;lon;timestamp;pressure;altitude;pressure_sealevel;temperature;humidity
40245;BME280;25963;42.694;23.600;2023-02-12T00:00:35;96191.69;;;-2.35;75.10
40245;BME280;25963;42.694;23.600;2023-02-12T00:03:00;96191.91;;;-2.38;74.97
40245;BME280;25963;42.694;23.600;2023-02-12T00:05:26;96192.59;;;-2.47;75.60
40245;BME280;25963;42.694;23.600;2023-02-12T00:07:52;96199.97;;;-2.42;75.75
40245;BME280;25963;42.694;23.600;2023-02-12T00:10:18;96200.28;;;-2.58;75.89
40245;BME280;25963;42.694;23.600;2023-02-12T00:12:43;96195.69;;;-2.66;76.55
40245;BME280;25963;42.694;23.600;2023-02-12T00:15:09;96198.06;;;-2.63;76.74
40245;BME280;25963;42.694;23.600;2023-02-12T00:17:34;96189.22;;;-2.71;77.49
40245;BME280;25963;42.694;23.600;2023-02-12T00:19:59;96201.41;;;-2.73;78.24
40245;BME280;25963;42.694;23.600;2023-02-12T00:22:25;96203.03;;;-2.72;78.11
40245;BME280;25963;42.694;23.600;2023-02-12T00:24:50;96187.94;;;-2.66;78.23
40245;BME280;25963;42.694;23.600;2023-02-12T00:27:16;96194.44;;;-2.60;78.12
40245;BME280;25963;42.694;23.600;2023-02-12T00:29:41;96195.72;;;-2.79;78.89
40245;BME280;25963;42.694;23.600;2023-02-12T00:32:06;96181.69;;;-2.74;78.95
40245;BME280;25963;42.694;23.600;2023-02-12T00:34:32;96180.72;;;-2.73;78.39
40245;BME280;25963;42.694;23.600;2023-02-12T00:36:57;96169.59;;;-2.74;78.67
40245;BME280;25963;42.694;23.600;2023-02-12T00:39:23;96174.69;;;-2.61;78.25
40245;BME280;25963;42.694;23.600;2023-02-12T00:41:48;96173.25;;;-2.65;78.59
40245;BME280;25963;42.694;23.600;2023-02-12T00:44:14;96173.25;;;-2.65;78.45
40245;BME280;25963;42.694;23.600;2023-02-12T00:46:39;96169.41;;;-2.60;78.34
40245;BME280;25963;42.694;23.600;2023-02-12T00:49:04;96161.88;;;-2.63;78.40
40245;BME280;25963;42.694;23.600;2023-02-12T00:51:30;96153.41;;;-2.65;78.73
40245;BME280;25963;42.694;23.600;2023-02-12T00:53:55;96159.41;;;-2.64;78.67
40245;BME280;25963;42.694;23.600;2023-02-12T00:56:21;96144.75;;;-2.53;78.41
40245;BME280;25963;42.694;23.600;2023-02-12T00:58:46;96143.81;;;-2.63;78.35
40245;BME280;25963;42.694;23.600;2023-02-12T01:01:11;96145.53;;;-2.63;78.91
40245;BME280;25963;42.694;23.600;2023-02-12T01:03:37;96139.94;;;-2.57;79.13
40245;BME280;25963;42.694;23.600;2023-02-12T01:06:03;96144.63;;;-2.62;79.11
40245;BME280;25963;42.694;23.600;2023-02-12T01:08:30;96151.06;;;-2.68;79.24
40245;BME280;25963;42.694;23.600;2023-02-12T01:10:58;96150.91;;;-2.78;79.37
40245;BME280;25963;42.694;23.600;2023-02-12T01:13:24;96151.16;;;-2.69;78.92
40245;BME280;25963;42.694;23.600;2023-02-12T01:16:05;96153.28;;;-2.63;78.71
40245;BME280;25963;42.694;23.600;2023-02-12T01:18:34;96154.00;;;-2.61;78.89
40245;BME280;25963;42.694;23.600;2023-02-12T01:20:59;96142.53;;;-2.57;78.64
40245;BME280;25963;42.694;23.600;2023-02-12T01:23:25;96150.50;;;-2.60;79.12
40245;BME280;25963;42.694;23.600;2023-02-12T01:25:51;96161.00;;;-2.50;78.95
40245;BME280;25963;42.694;23.600;2023-02-12T01:28:16;96162.13;;;-2.55;79.46
40245;BME280;25963;42.694;23.600;2023-02-12T01:30:42;96163.66;;;-2.52;79.51
40245;BME280;25963;42.694;23.600;2023-02-12T01:33:07;96153.78;;;-2.58;80.01
40245;BME280;25963;42.694;23.600;2023-02-12T01:35:32;96153.19;;;-2.62;80.00
40245;BME280;25963;42.694;23.600;2023-02-12T01:37:58;96151.09;;;-2.57;81.06
40245;BME280;25963;42.694;23.600;2023-02-12T01:40:23;96143.44;;;-2.58;80.84
40245;BME280;25963;42.694;23.600;2023-02-12T01:42:49;96132.91;;;-2.55;80.97
40245;BME280;25963;42.694;23.600;2023-02-12T01:47:41;96126.59;;;-2.51;81.91
40245;BME280;25963;42.694;23.600;2023-02-12T01:50:11;96130.75;;;-2.61;82.05
40245;BME280;25963;42.694;23.600;2023-02-12T01:52:39;96129.84;;;-2.60;82.06
40245;BME280;25963;42.694;23.600;2023-02-12T01:55:08;96123.63;;;-2.46;82.14
40245;BME280;25963;42.694;23.600;2023-02-12T01:57:41;96112.44;;;-2.58;82.31
40245;BME280;25963;42.694;23.600;2023-02-12T02:00:23;96115.16;;;-2.48;82.26
40245;BME280;25963;42.694;23.600;2023-02-12T02:02:52;96112.00;;;-2.52;82.86
40245;BME280;25963;42.694;23.600;2023-02-12T02:08:04;96101.31;;;-2.59;84.10
40245;BME280;25963;42.694;23.600;2023-02-12T02:10:30;96119.41;;;-2.47;83.76
40245;BME280;25963;42.694;23.600;2023-02-12T02:12:56;96111.97;;;-2.63;83.83
40245;BME280;25963;42.694;23.600;2023-02-12T02:15:43;96126.19;;;-2.69;83.99
40245;BME280;25963;42.694;23.600;2023-02-12T02:23:44;96110.81;;;-2.59;83.08
40245;BME280;25963;42.694;23.600;2023-02-12T02:31:48;96125.81;;;-2.64;83.19
40245;BME280;25963;42.694;23.600;2023-02-12T02:34:23;96119.50;;;-2.60;82.76
40245;BME280;25963;42.694;23.600;2023-02-12T02:37:16;96125.28;;;-2.57;82.40
40245;BME280;25963;42.694;23.600;2023-02-12T02:39:53;96126.91;;;-2.56;82.03
40245;BME280;25963;42.694;23.600;2023-02-12T02:42:36;96130.56;;;-2.47;81.84
40245;BME280;25963;42.694;23.600;2023-02-12T02:46:00;96130.81;;;-2.50;81.89
40245;BME280;25963;42.694;23.600;2023-02-12T02:48:11;96142.63;;;-2.59;82.13
40245;BME280;25963;42.694;23.600;2023-02-12T02:50:43;96143.53;;;-2.71;83.06
40245;BME280;25963;42.694;23.600;2023-02-12T02:53:17;96133.34;;;-2.61;82.49
40245;BME280;25963;42.694;23.600;2023-02-12T02:55:51;96146.03;;;-2.58;82.18
40245;BME280;25963;42.694;23.600;2023-02-12T02:58:43;96153.91;;;-2.60;81.70
40245;BME280;25963;42.694;23.600;2023-02-12T03:01:12;96133.94;;;-2.58;81.51
40245;BME280;25963;42.694;23.600;2023-02-12T03:03:46;96143.59;;;-2.48;80.44
40245;BME280;25963;42.694;23.600;2023-02-12T03:06:28;96137.84;;;-2.52;80.85
40245;BME280;25963;42.694;23.600;2023-02-12T03:09:10;96145.13;;;-2.46;80.76
40245;BME280;25963;42.694;23.600;2023-02-12T03:11:37;96139.63;;;-2.41;80.97
40245;BME280;25963;42.694;23.600;2023-02-12T03:14:15;96134.09;;;-2.48;81.88
40245;BME280;25963;42.694;23.600;2023-02-12T03:16:50;96132.06;;;-2.56;82.18
40245;BME280;25963;42.694;23.600;2023-02-12T03:19:28;96140.19;;;-2.60;82.60
40245;BME280;25963;42.694;23.600;2023-02-12T03:22:02;96138.31;;;-2.47;82.23
40245;BME280;25963;42.694;23.600;2023-02-12T03:24:35;96132.94;;;-2.44;82.31
40245;BME280;25963;42.694;23.600;2023-02-12T03:27:14;96124.72;;;-2.38;81.96
40245;BME280;25963;42.694;23.600;2023-02-12T03:29:41;96124.22;;;-2.43;82.06
40245;BME280;25963;42.694;23.600;2023-02-12T03:34:54;96120.47;;;-2.50;82.13
40245;BME280;25963;42.694;23.600;2023-02-12T03:37:37;96111.31;;;-2.43;82.51
40245;BME280;25963;42.694;23.600;2023-02-12T03:46:01;96132.75;;;-2.18;83.11
40245;BME280;25963;42.694;23.600;2023-02-12T03:51:18;96118.66;;;-2.14;82.26
40245;BME280;25963;42.694;23.600;2023-02-12T03:53:47;96118.19;;;-2.08;81.92
40245;BME280;25963;42.694;23.600;2023-02-12T03:56:24;96115.84;;;-2.00;82.38
40245;BME280;25963;42.694;23.600;2023-02-12T03:58:51;96118.44;;;-2.00;81.45
40245;BME280;25963;42.694;23.600;2023-02-12T04:01:17;96119.16;;;-2.09;81.57
40245;BME280;25963;42.694;23.600;2023-02-12T04:03:43;96113.28;;;-2.00;81.79
40245;BME280;25963;42.694;23.600;2023-02-12T04:06:26;96111.38;;;-1.98;82.16
40245;BME280;25963;42.694;23.600;2023-02-12T04:08:54;96113.38;;;-1.90;81.83
40245;BME280;25963;42.694;23.600;2023-02-12T04:11:26;96112.34;;;-1.88;82.34
40245;BME280;25963;42.694;23.600;2023-02-12T04:27:55;96119.16;;;-1.87;82.91
40245;BME280;25963;42.694;23.600;2023-02-12T04:30:28;96119.38;;;-1.90;82.92
40245;BME280;25963;42.694;23.600;2023-02-12T04:33:01;96113.97;;;-1.87;82.86
40245;BME280;25963;42.694;23.600;2023-02-12T04:35:33;96117.03;;;-1.81;83.18
40245;BME280;25963;42.694;23.600;2023-02-12T04:40:33;96116.06;;;-1.92;81.21
40245;BME280;25963;42.694;23.600;2023-02-12T04:42:59;96117.97;;;-1.94;80.00
40245;BME280;25963;42.694;23.600;2023-02-12T04:45:27;96114.09;;;-1.99;80.14
40245;BME280;25963;42.694;23.600;2023-02-12T04:47:53;96114.81;;;-1.97;79.95
40245;BME280;25963;42.694;23.600;2023-02-12T04:50:19;96123.13;;;-1.83;78.89
40245;BME280;25963;42.694;23.600;2023-02-12T04:52:45;96118.44;;;-1.77;79.03
40245;BME280;25963;42.694;23.600;2023-02-12T04:55:11;96118.09;;;-1.73;80.14
40245;BME280;25963;42.694;23.600;2023-02-12T04:57:36;96125.38;;;-1.67;80.20
40245;BME280;25963;42.694;23.600;2023-02-12T05:00:04;96116.66;;;-1.66;80.96
40245;BME280;25963;42.694;23.600;2023-02-12T05:02:30;96127.38;;;-1.59;80.61
40245;BME280;25963;42.694;23.600;2023-02-12T05:04:57;96121.75;;;-1.64;81.03
40245;BME280;25963;42.694;23.600;2023-02-12T05:07:22;96128.56;;;-1.52;81.25
40245;BME280;25963;42.694;23.600;2023-02-12T05:09:47;96128.88;;;-1.45;81.25
40245;BME280;25963;42.694;23.600;2023-02-12T05:12:13;96128.31;;;-1.49;81.17
40245;BME280;25963;42.694;23.600;2023-02-12T05:14:38;96125.50;;;-1.57;81.04
40245;BME280;25963;42.694;23.600;2023-02-12T05:17:04;96129.72;;;-1.45;81.28
40245;BME280;25963;42.694;23.600;2023-02-12T05:19:29;96127.72;;;-1.52;81.69
40245;BME280;25963;42.694;23.600;2023-02-12T05:21:55;96129.50;;;-1.75;81.93
40245;BME280;25963;42.694;23.600;2023-02-12T05:24:20;96130.91;;;-1.71;81.63
40245;BME280;25963;42.694;23.600;2023-02-12T05:26:47;96131.13;;;-1.63;81.08
40245;BME280;25963;42.694;23.600;2023-02-12T05:29:12;96137.13;;;-1.63;79.51
40245;BME280;25963;42.694;23.600;2023-02-12T05:31:38;96137.84;;;-1.61;78.93
40245;BME280;25963;42.694;23.600;2023-02-12T05:34:05;96143.34;;;-1.65;77.73
40245;BME280;25963;42.694;23.600;2023-02-12T05:36:31;96145.59;;;-1.49;78.05
40245;BME280;25963;42.694;23.600;2023-02-12T05:38:58;96150.56;;;-1.46;77.67
40245;BME280;25963;42.694;23.600;2023-02-12T05:41:24;96145.72;;;-1.51;77.93
40245;BME280;25963;42.694;23.600;2023-02-12T05:43:50;96156.78;;;-1.49;77.63
40245;BME280;25963;42.694;23.600;2023-02-12T05:46:20;96161.72;;;-1.46;77.12
40245;BME280;25963;42.694;23.600;2023-02-12T05:48:46;96162.41;;;-1.44;77.24
40245;BME280;25963;42.694;23.600;2023-02-12T05:51:14;96167.13;;;-1.38;77.88
40245;BME280;25963;42.694;23.600;2023-02-12T05:53:40;96166.41;;;-1.40;76.96
40245;BME280;25963;42.694;23.600;2023-02-12T05:58:34;96167.00;;;-1.25;76.95
40245;BME280;25963;42.694;23.600;2023-02-12T06:01:00;96168.63;;;-1.24;77.26
40245;BME280;25963;42.694;23.600;2023-02-12T06:03:25;96155.59;;;-1.33;77.22
40245;BME280;25963;42.694;23.600;2023-02-12T06:05:51;96171.13;;;-1.22;77.35
40245;BME280;25963;42.694;23.600;2023-02-12T06:08:16;96165.94;;;-1.22;77.92
40245;BME280;25963;42.694;23.600;2023-02-12T06:10:42;96172.97;;;-1.13;77.95
40245;BME280;25963;42.694;23.600;2023-02-12T06:13:07;96182.97;;;-1.08;77.23
40245;BME280;25963;42.694;23.600;2023-02-12T06:15:35;96179.09;;;-1.14;77.25
40245;BME280;25963;42.694;23.600;2023-02-12T06:18:01;96181.41;;;-1.00;78.10
40245;BME280;25963;42.694;23.600;2023-02-12T06:20:26;96185.44;;;-1.07;77.32
40245;BME280;25963;42.694;23.600;2023-02-12T06:22:51;96189.09;;;-1.21;77.39
40245;BME280;25963;42.694;23.600;2023-02-12T06:25:17;96184.50;;;-1.06;76.99
40245;BME280;25963;42.694;23.600;2023-02-12T06:27:42;96189.19;;;-1.11;76.59
40245;BME280;25963;42.694;23.600;2023-02-12T06:30:08;96188.13;;;-1.08;77.01
40245;BME280;25963;42.694;23.600;2023-02-12T06:32:34;96188.47;;;-1.02;77.35
40245;BME280;25963;42.694;23.600;2023-02-12T06:34:59;96182.94;;;-0.97;77.96
40245;BME280;25963;42.694;23.600;2023-02-12T06:37:24;96181.41;;;-1.00;78.02
40245;BME280;25963;42.694;23.600;2023-02-12T06:39:50;96191.03;;;-0.90;77.64
40245;BME280;25963;42.694;23.600;2023-02-12T06:42:15;96183.75;;;-0.85;78.48
40245;BME280;25963;42.694;23.600;2023-02-12T06:44:41;96190.31;;;-0.81;79.03
40245;BME280;25963;42.694;23.600;2023-02-12T06:47:06;96193.03;;;-0.83;80.80
40245;BME280;25963;42.694;23.600;2023-02-12T06:49:31;96192.22;;;-0.83;81.87
40245;BME280;25963;42.694;23.600;2023-02-12T06:51:57;96186.56;;;-0.88;83.80
40245;BME280;25963;42.694;23.600;2023-02-12T06:54:22;96193.38;;;-0.76;85.19
40245;BME280;25963;42.694;23.600;2023-02-12T06:56:48;96189.66;;;-0.95;87.36
40245;BME280;25963;42.694;23.600;2023-02-12T06:59:15;96194.34;;;-0.88;89.47
40245;BME280;25963;42.694;23.600;2023-02-12T07:01:41;96193.16;;;-0.84;90.96
40245;BME280;25963;42.694;23.600;2023-02-12T07:04:06;96197.66;;;-0.86;92.10
40245;BME280;25963;42.694;23.600;2023-02-12T07:06:34;96204.94;;;-0.80;93.06
40245;BME280;25963;42.694;23.600;2023-02-12T07:09:00;96210.44;;;-0.74;93.33
40245;BME280;25963;42.694;23.600;2023-02-12T07:11:27;96207.72;;;-0.72;92.84
40245;BME280;25963;42.694;23.600;2023-02-12T07:13:53;96207.72;;;-0.72;93.70
40245;BME280;25963;42.694;23.600;2023-02-12T07:16:18;96204.19;;;-0.71;95.59
40245;BME280;25963;42.694;23.600;2023-02-12T07:18:45;96200.31;;;-0.77;99.94
40245;BME280;25963;42.694;23.600;2023-02-12T07:21:13;96207.28;;;-0.77;100.00
40245;BME280;25963;42.694;23.600;2023-02-12T07:23:39;96201.88;;;-0.85;100.00
40245;BME280;25963;42.694;23.600;2023-02-12T07:26:10;96206.56;;;-0.68;100.00
40245;BME280;25963;42.694;23.600;2023-02-12T07:28:36;96203.31;;;-0.60;100.00
40245;BME280;25963;42.694;23.600;2023-02-12T07:33:31;96209.22;;;-0.58;100.00
40245;BME280;25963;42.694;23.600;2023-02-12T07:35:59;96207.72;;;-0.72;100.00
40245;BME280;25963;42.694;23.600;2023-02-12T07:38:25;96210.06;;;-0.69;100.00
40245;BME280;25963;42.694;23.600;2023-02-12T07:40:50;96212.13;;;-0.52;100.00
40245;BME280;25963;42.694;23.600;2023-02-12T07:43:15;96210.34;;;-0.40;100.00
40245;BME280;25963;42.694;23.600;2023-02-12T07:45:41;96207.28;;;-0.45;100.00
40245;BME280;25963;42.694;23.600;2023-02-12T07:48:06;96220.13;;;-0.43;100.00
40245;BME280;25963;42.694;23.600;2023-02-12T07:50:32;96221.94;;;-0.23;100.00
40245;BME280;25963;42.694;23.600;2023-02-12T07:53:00;96219.47;;;-0.25;100.00
40245;BME280;25963;42.694;23.600;2023-02-12T07:55:25;96222.88;;;-0.24;100.00
40245;BME280;25963;42.694;23.600;2023-02-12T07:57:51;96216.28;;;-0.28;100.00
40245;BME280;25963;42.694;23.600;2023-02-12T08:00:16;96225.88;;;-0.08;100.00
40245;BME280;25963;42.694;23.600;2023-02-12T08:02:42;96217.63;;;-0.13;100.00
40245;BME280;25963;42.694;23.600;2023-02-12T08:05:07;96224.41;;;-0.01;100.00
40245;BME280;25963;42.694;23.600;2023-02-12T08:07:33;96223.75;;;-0.03;100.00
40245;BME280;25963;42.694;23.600;2023-02-12T08:09:58;96221.41;;;-0.06;100.00
40245;BME280;25963;42.694;23.600;2023-02-12T08:12:24;96208.44;;;0.15;100.00
40245;BME280;25963;42.694;23.600;2023-02-12T08:14:49;96219.09;;;0.43;100.00
40245;BME280;25963;42.694;23.600;2023-02-12T08:17:15;96227.09;;;0.61;100.00
40245;BME280;25963;42.694;23.600;2023-02-12T08:19:40;96219.53;;;0.48;99.16
40245;BME280;25963;42.694;23.600;2023-02-12T08:22:05;96228.16;;;0.49;99.71
40245;BME280;25963;42.694;23.600;2023-02-12T08:24:31;96232.25;;;0.51;100.00
40245;BME280;25963;42.694;23.600;2023-02-12T08:26:57;96237.94;;;0.66;99.45
40245;BME280;25963;42.694;23.600;2023-02-12T08:29:25;96238.06;;;0.64;98.52
40245;BME280;25963;42.694;23.600;2023-02-12T08:32:00;96243.53;;;0.71;98.42
40245;BME280;25963;42.694;23.600;2023-02-12T08:34:29;96243.38;;;0.94;98.02
40245;BME280;25963;42.694;23.600;2023-02-12T08:36:55;96247.53;;;1.06;97.66
40245;BME280;25963;42.694;23.600;2023-02-12T08:39:23;96245.75;;;1.06;95.50
40245;BME280;25963;42.694;23.600;2023-02-12T08:41:48;96251.19;;;1.03;95.72
40245;BME280;25963;42.694;23.600;2023-02-12T08:44:15;96251.03;;;1.35;94.77
40245;BME280;25963;42.694;23.600;2023-02-12T08:46:46;96252.00;;;1.54;92.85
40245;BME280;25963;42.694;23.600;2023-02-12T08:49:17;96256.41;;;1.63;91.82
40245;BME280;25963;42.694;23.600;2023-02-12T08:51:44;96270.53;;;1.90;90.38
40245;BME280;25963;42.694;23.600;2023-02-12T08:54:12;96267.91;;;2.09;88.89
40245;BME280;25963;42.694;23.600;2023-02-12T08:56:38;96273.13;;;2.28;88.29
40245;BME280;25963;42.694;23.600;2023-02-12T08:59:06;96274.56;;;2.60;85.98
40245;BME280;25963;42.694;23.600;2023-02-12T09:01:33;96283.69;;;2.84;83.57
40245;BME280;25963;42.694;23.600;2023-02-12T09:03:59;96284.75;;;3.01;81.20
40245;BME280;25963;42.694;23.600;2023-02-12T09:06:25;96284.72;;;3.10;78.76
40245;BME280;25963;42.694;23.600;2023-02-12T09:08:52;96279.22;;;3.13;79.65
40245;BME280;25963;42.694;23.600;2023-02-12T09:11:23;96289.19;;;2.90;78.87
40245;BME280;25963;42.694;23.600;2023-02-12T09:13:58;96279.88;;;2.78;78.79
40245;BME280;25963;42.694;23.600;2023-02-12T09:16:24;96297.63;;;3.12;79.81
40245;BME280;25963;42.694;23.600;2023-02-12T09:18:50;96278.44;;;3.31;77.83
40245;BME280;25963;42.694;23.600;2023-02-12T09:21:15;96271.38;;;3.41;77.27
40245;BME280;25963;42.694;23.600;2023-02-12T09:23:42;96280.38;;;3.56;76.47
40245;BME280;25963;42.694;23.600;2023-02-12T09:26:09;96288.88;;;3.58;75.54
40245;BME280;25963;42.694;23.600;2023-02-12T09:28:36;96285.34;;;3.22;75.17
40245;BME280;25963;42.694;23.600;2023-02-12T09:31:10;96288.19;;;3.29;74.71
40245;BME280;25963;42.694;23.600;2023-02-12T09:33:36;96286.78;;;3.44;75.42
40245;BME280;25963;42.694;23.600;2023-02-12T09:36:04;96285.34;;;3.50;75.02
40245;BME280;25963;42.694;23.600;2023-02-12T09:38:30;96286.22;;;3.40;73.94
40245;BME280;25963;42.694;23.600;2023-02-12T09:46:15;96287.97;;;4.31;73.34
40245;BME280;25963;42.694;23.600;2023-02-12T09:49:09;96283.81;;;4.64;73.05
40245;BME280;25963;42.694;23.600;2023-02-12T09:51:36;96290.63;;;5.17;70.67
40245;BME280;25963;42.694;23.600;2023-02-12T09:54:05;96285.56;;;5.16;69.66
40245;BME280;25963;42.694;23.600;2023-02-12T09:56:33;96287.56;;;5.22;68.81
40245;BME280;25963;42.694;23.600;2023-02-12T09:59:06;96283.03;;;5.32;65.92
40245;BME280;25963;42.694;23.600;2023-02-12T10:01:33;96283.81;;;5.24;67.04
40245;BME280;25963;42.694;23.600;2023-02-12T10:03:59;96288.19;;;5.16;69.01
40245;BME280;25963;42.694;23.600;2023-02-12T10:06:28;96293.84;;;5.37;66.22
40245;BME280;25963;42.694;23.600;2023-02-12T10:09:14;96304.13;;;5.31;64.57
40245;BME280;25963;42.694;23.600;2023-02-12T10:14:35;96302.72;;;5.44;64.69
40245;BME280;25963;42.694;23.600;2023-02-12T10:27:44;96308.44;;;5.14;65.04
40245;BME280;25963;42.694;23.600;2023-02-12T10:30:36;96307.00;;;4.93;64.05
40245;BME280;25963;42.694;23.600;2023-02-12T10:33:15;96310.91;;;4.45;65.28
40245;BME280;25963;42.694;23.600;2023-02-12T10:35:46;96310.94;;;4.27;66.91
40245;BME280;25963;42.694;23.600;2023-02-12T10:38:18;96303.25;;;4.44;67.04
40245;BME280;25963;42.694;23.600;2023-02-12T10:40:45;96308.84;;;4.49;66.32
40245;BME280;25963;42.694;23.600;2023-02-12T10:43:12;96306.59;;;4.36;67.26
40245;BME280;25963;42.694;23.600;2023-02-12T10:45:39;96308.97;;;4.47;68.46
40245;BME280;25963;42.694;23.600;2023-02-12T10:48:24;96312.22;;;4.05;68.11
40245;BME280;25963;42.694;23.600;2023-02-12T10:53:36;96301.16;;;3.94;69.17
40245;BME280;25963;42.694;23.600;2023-02-12T10:58:57;96292.00;;;3.89;70.98
40245;BME280;25963;42.694;23.600;2023-02-12T11:01:31;96291.63;;;4.02;70.88
40245;BME280;25963;42.694;23.600;2023-02-12T11:03:59;96281.38;;;4.09;71.81
40245;BME280;25963;42.694;23.600;2023-02-12T11:06:30;96298.47;;;4.21;70.13
40245;BME280;25963;42.694;23.600;2023-02-12T11:08:57;96295.34;;;4.18;69.91
40245;BME280;25963;42.694;23.600;2023-02-12T11:11:30;96295.34;;;4.18;70.34
40245;BME280;25963;42.694;23.600;2023-02-12T11:14:05;96297.81;;;4.37;69.92
40245;BME280;25963;42.694;23.600;2023-02-12T11:16:44;96300.84;;;4.50;70.08
40245;BME280;25963;42.694;23.600;2023-02-12T11:19:33;96299.50;;;4.64;69.58
40245;BME280;25963;42.694;23.600;2023-02-12T11:22:09;96294.66;;;4.77;68.93
40245;BME280;25963;42.694;23.600;2023-02-12T11:24:36;96307.16;;;4.66;66.65
40245;BME280;25963;42.694;23.600;2023-02-12T11:27:26;96301.22;;;4.81;67.29
40245;BME280;25963;42.694;23.600;2023-02-12T11:32:34;96289.25;;;5.31;66.67
40245;BME280;25963;42.694;23.600;2023-02-12T11:35:22;96300.13;;;5.53;66.61
40245;BME280;25963;42.694;23.600;2023-02-12T11:37:55;96284.94;;;5.64;64.00
40245;BME280;25963;42.694;23.600;2023-02-12T11:40:24;96306.69;;;5.57;63.72
40245;BME280;25963;42.694;23.600;2023-02-12T11:42:57;96305.44;;;5.77;63.06
40245;BME280;25963;42.694;23.600;2023-02-12T11:45:33;96307.72;;;5.72;63.20
40245;BME280;25963;42.694;23.600;2023-02-12T11:47:59;96307.72;;;5.72;63.49
40245;BME280;25963;42.694;23.600;2023-02-12T11:50:31;96301.47;;;5.57;62.26
40245;BME280;25963;42.694;23.600;2023-02-12T11:53:08;96304.81;;;5.41;63.82
40245;BME280;25963;42.694;23.600;2023-02-12T11:55:37;96286.66;;;5.39;63.75
40245;BME280;25963;42.694;23.600;2023-02-12T12:00:45;96296.16;;;5.40;64.91
40245;BME280;25963;42.694;23.600;2023-02-12T12:06:30;96292.72;;;5.40;63.75
40245;BME280;25963;42.694;23.600;2023-02-12T12:11:43;96295.91;;;5.25;65.36
40245;BME280;25963;42.694;23.600;2023-02-12T12:19:46;96316.34;;;4.70;65.95
40245;BME280;25963;42.694;23.600;2023-02-12T12:25:30;96318.75;;;4.45;67.92
40245;BME280;25963;42.694;23.600;2023-02-12T12:33:11;96316.00;;;4.47;69.51
40245;BME280;25963;42.694;23.600;2023-02-12T12:38:32;96311.78;;;4.28;68.98
40245;BME280;25963;42.694;23.600;2023-02-12T12:54:52;96326.19;;;4.76;68.60
40245;BME280;25963;42.694;23.600;2023-02-12T12:57:36;96335.50;;;4.78;67.89
40245;BME280;25963;42.694;23.600;2023-02-12T13:03:22;96322.28;;;4.80;68.57
40245;BME280;25963;42.694;23.600;2023-02-12T13:06:07;96332.69;;;4.72;68.80
40245;BME280;25963;42.694;23.600;2023-02-12T13:09:00;96336.34;;;4.79;68.44
40245;BME280;25963;42.694;23.600;2023-02-12T13:11:37;96331.75;;;4.73;67.64
40245;BME280;25963;42.694;23.600;2023-02-12T13:17:04;96340.25;;;5.01;67.76
40245;BME280;25963;42.694;23.600;2023-02-12T13:22:42;96339.84;;;5.14;67.40
40245;BME280;25963;42.694;23.600;2023-02-12T13:25:29;96346.41;;;5.18;68.10
40245;BME280;25963;42.694;23.600;2023-02-12T13:27:59;96348.56;;;5.22;66.29
40245;BME280;25963;42.694;23.600;2023-02-12T13:30:30;96349.38;;;5.23;66.46
40245;BME280;25963;42.694;23.600;2023-02-12T13:33:06;96355.78;;;5.29;66.11
40245;BME280;25963;42.694;23.600;2023-02-12T13:35:38;96355.78;;;5.29;66.05
40245;BME280;25963;42.694;23.600;2023-02-12T13:38:06;96357.19;;;5.15;66.30
40245;BME280;25963;42.694;23.600;2023-02-12T13:40:33;96360.34;;;5.00;66.26
40245;BME280;25963;42.694;23.600;2023-02-12T13:45:58;96360.00;;;4.95;68.06
40245;BME280;25963;42.694;23.600;2023-02-12T13:51:43;96373.16;;;4.86;67.93
40245;BME280;25963;42.694;23.600;2023-02-12T13:57:22;96378.47;;;4.76;69.38
40245;BME280;25963;42.694;23.600;2023-02-12T13:59:52;96378.75;;;4.91;70.17
40245;BME280;25963;42.694;23.600;2023-02-12T14:02:41;96371.53;;;4.85;70.06
40245;BME280;25963;42.694;23.600;2023-02-12T14:05:23;96381.44;;;4.81;70.49
40245;BME280;25963;42.694;23.600;2023-02-12T14:07:58;96380.63;;;4.80;69.63
40245;BME280;25963;42.694;23.600;2023-02-12T14:10:35;96382.56;;;4.78;69.76
40245;BME280;25963;42.694;23.600;2023-02-12T14:13:14;96387.03;;;4.86;68.49
40245;BME280;25963;42.694;23.600;2023-02-12T14:15:43;96392.50;;;4.75;68.84
40245;BME280;25963;42.694;23.600;2023-02-12T14:23:37;96401.75;;;4.87;68.71
40245;BME280;25963;42.694;23.600;2023-02-12T14:26:15;96404.47;;;4.77;69.07
40245;BME280;25963;42.694;23.600;2023-02-12T14:29:00;96411.28;;;4.70;69.06
40245;BME280;25963;42.694;23.600;2023-02-12T14:31:33;96410.66;;;4.58;69.05
40245;BME280;25963;42.694;23.600;2023-02-12T14:41:53;96415.72;;;4.96;67.21
40245;BME280;25963;42.694;23.600;2023-02-12T14:49:25;96436.63;;;5.14;67.44
40245;BME280;25963;42.694;23.600;2023-02-12T14:54:42;96446.44;;;4.94;67.61
40245;BME280;25963;42.694;23.600;2023-02-12T14:57:20;96432.00;;;4.72;68.63
40245;BME280;25963;42.694;23.600;2023-02-12T14:59:48;96452.50;;;4.76;68.66
40245;BME280;25963;42.694;23.600;2023-02-12T15:02:25;96457.63;;;4.86;69.00
40245;BME280;25963;42.694;23.600;2023-02-12T15:04:53;96453.09;;;4.88;68.33
40245;BME280;25963;42.694;23.600;2023-02-12T15:07:28;96464.88;;;4.92;68.36
40245;BME280;25963;42.694;23.600;2023-02-12T15:10:12;96470.28;;;4.91;68.13
40245;BME280;25963;42.694;23.600;2023-02-12T15:16:03;96485.19;;;4.80;67.77
40245;BME280;25963;42.694;23.600;2023-02-12T15:18:54;96489.22;;;4.75;67.84
40245;BME280;25963;42.694;23.600;2023-02-12T15:21:24;96490.00;;;4.67;68.50
40245;BME280;25963;42.694;23.600;2023-02-12T15:26:26;96505.88;;;4.28;71.28
40245;BME280;25963;42.694;23.600;2023-02-12T15:28:52;96517.31;;;3.90;72.68
40245;BME280;25963;42.694;23.600;2023-02-12T15:31:25;96514.00;;;3.88;70.50
40245;BME280;25963;42.694;23.600;2023-02-12T15:33:52;96523.94;;;3.75;71.04
40245;BME280;25963;42.694;23.600;2023-02-12T15:36:22;96522.06;;;3.57;71.60
40245;BME280;25963;42.694;23.600;2023-02-12T15:38:52;96521.38;;;3.55;71.66
40245;BME280;25963;42.694;23.600;2023-02-12T15:41:29;96520.00;;;3.61;71.75
40245;BME280;25963;42.694;23.600;2023-02-12T15:43:59;96525.22;;;3.61;71.80
40245;BME280;25963;42.694;23.600;2023-02-12T15:46:25;96530.59;;;3.59;71.80